Terminal Aerodrome Forecast
Issued by NWS

Home | Current Version | Previous Version | Text Only | Print | Product List | Glossary On
Versions: 1 2 3 4 5 6 7 8 9 10 11 12 13 14 15 16 17 18 19 20 21 22 23 24 25 26 27 28 29 30 31 32 33 34 35 36 37
000
FTUS45 KBOU 251142
TAFAPA
TAF
KAPA 251142Z 2512/2612 14007KT P6SM FEW220
     FM251800 16012KT P6SM FEW140 BKN220
     FM260100 18011KT P6SM SCT090 BKN140
     FM260700 31008KT P6SM BKN050 OVC080
     FM261000 35007KT P6SM VCSH SCT035 OVC050
      TEMPO 2610/2612 3SM -SHSNRA OVC025=

USA.gov is the U.S. government's official web portal to all federal, state and local government web resources and services.